Maran Castor — SXLH — position and weather

sailwx.info

Track history (hours):
 
Tides and Currents Weather Stations Pressure Air Temp Water Temp Dewpoint Dewpoint Depression Visibility Wind Speed Wind Dir Waves Ship Positions

Maran Castor

Last reported at 2015-Jul-30 07:31 UTC. Time now 2015-Jul-30 08:07 UTC.
Position N 01°15' E 103°56'.

Length 332 m; draft 11.5 m.

Type: Tanker. MMSI: 239808000.

Date/timePositionNaut miles runAvg speedWind from/ knotsBaromVisibWave heightAir tempDewpointWater temp
2015-Jul-30 07:31N 01°15' E 103°56'1 0.8
2015-Jul-30 06:32N 01°16' E 103°56'3 3.0
2015-Jul-30 05:33N 01°16' E 103°59'6 6.0
2015-Jul-30 04:28N 01°17' E 104°05'7 7.0
2015-Jul-30 03:28N 01°17' E 104°12'  
2015-Jul-25 17:21N 22°28' E 119°48'1214.5
2015-Jul-25 16:33N 22°39' E 119°53'1514.3
2015-Jul-25 15:31N 22°54' E 119°53'43013.0
2015-Jul-24 06:31N 29°42' E 122°24'1110.2
2015-Jul-24 05:27N 29°49' E 122°14'9 9.5
2015-Jul-24 04:32N 29°55' E 122°08'12 0.3
2015-Jul-22 07:25N 30°02' E 121°57'10 8.4
2015-Jul-22 06:11N 29°56' E 122°06'811.2
2015-Jul-22 05:29N 29°50' E 122°13'9 9.6
2015-Jul-22 04:32N 29°45' E 122°21'5 5.1
2015-Jul-22 03:33N 29°43' E 122°26'6 6.1
2015-Jul-22 02:31N 29°43' E 122°34'1 0.3
2015-Jul-22 00:28N 29°43' E 122°34'0 0.1
2015-Jul-21 20:28N 29°43' E 122°35'  
Track history (hours):
 
Tides and Currents Weather Stations Pressure Air Temp Water Temp Dewpoint Dewpoint Depression Visibility Wind Speed Wind Dir Waves Ship Positions

Maran Castor

Last reported at 2015-Jul-30 07:31 UTC. Time now 2015-Jul-30 08:07 UTC.
Position N 01°15' E 103°56'.

Length 332 m; draft 11.5 m.

Type: Tanker. MMSI: 239808000.

Date/timePositionNaut miles runAvg speedWind from/ knotsBaromVisibWave heightAir tempDewpointWater temp
2015-Jul-30 07:31N 01°15' E 103°56'1 0.8
2015-Jul-30 06:32N 01°16' E 103°56'3 3.0
2015-Jul-30 05:33N 01°16' E 103°59'6 6.0
2015-Jul-30 04:28N 01°17' E 104°05'7 7.0
2015-Jul-30 03:28N 01°17' E 104°12'  
2015-Jul-25 17:21N 22°28' E 119°48'1214.5
2015-Jul-25 16:33N 22°39' E 119°53'1514.3
2015-Jul-25 15:31N 22°54' E 119°53'43013.0
2015-Jul-24 06:31N 29°42' E 122°24'1110.2
2015-Jul-24 05:27N 29°49' E 122°14'9 9.5
2015-Jul-24 04:32N 29°55' E 122°08'12 0.3
2015-Jul-22 07:25N 30°02' E 121°57'10 8.4
2015-Jul-22 06:11N 29°56' E 122°06'811.2
2015-Jul-22 05:29N 29°50' E 122°13'9 9.6
2015-Jul-22 04:32N 29°45' E 122°21'5 5.1
2015-Jul-22 03:33N 29°43' E 122°26'6 6.1
2015-Jul-22 02:31N 29°43' E 122°34'1 0.3
2015-Jul-22 00:28N 29°43' E 122°34'0 0.1
2015-Jul-21 20:28N 29°43' E 122°35'  

Dump ship's entire track history